Time;durP1;ratioP1;P1;durP2;ratioP2;P2;SDS_P1;SDS_P2;PMS_P1;PMS_P2;Temp;Humidity;BMP_temperature;BMP_pressure;BME280_temperature;BME280_humidity;BME280_pressure;Samples;Min_cycle;Max_cycle;Signal;HPM_P1;HPM_P2
2022/12/01 00:00:45;;;;;;;0.60;0.60;;;6.70;99.90;;;;;;4963463;28;20064;-81
2022/12/01 00:03:12;;;;;;;0.60;0.60;;;6.70;99.90;;;;;;4959652;28;20786;-81
2022/12/01 00:05:37;;;;;;;0.60;0.60;;;6.70;99.90;;;;;;4954681;28;21154;-81
2022/12/01 00:08:04;;;;;;;0.60;0.60;;;6.70;99.90;;;;;;4954816;28;20208;-80
2022/12/01 00:10:31;;;;;;;0.70;0.70;;;6.60;99.90;;;;;;4953964;28;20067;-80
2022/12/01 00:12:59;;;;;;;0.60;0.60;;;6.70;99.90;;;;;;4957053;28;20049;-81
2022/12/01 00:15:33;;;;;;;0.70;0.70;;;6.60;99.90;;;;;;4949783;28;20075;-81
2022/12/01 00:18:00;;;;;;;0.70;0.70;;;6.60;99.90;;;;;;4968111;28;20121;-81
2022/12/01 00:20:27;;;;;;;0.65;0.65;;;6.60;99.90;;;;;;4955315;28;20051;-82
2022/12/01 00:22:53;;;;;;;0.60;0.60;;;6.60;99.90;;;;;;4965079;28;20063;-81
2022/12/01 00:25:19;;;;;;;0.60;0.60;;;6.70;99.90;;;;;;4941998;28;20048;-81
2022/12/01 00:27:50;;;;;;;0.60;0.60;;;6.70;99.90;;;;;;4943150;28;20114;-82
2022/12/01 00:30:17;;;;;;;0.60;0.60;;;6.70;99.90;;;;;;4970997;28;20087;-81
2022/12/01 00:32:44;;;;;;;0.60;0.60;;;6.70;99.90;;;;;;4959335;28;20813;-81
2022/12/01 00:35:10;;;;;;;0.63;0.63;;;6.60;99.90;;;;;;4958379;28;20048;-81
2022/12/01 00:37:36;;;;;;;0.60;0.60;;;6.60;99.90;;;;;;4927284;28;20245;-81
2022/12/01 00:40:03;;;;;;;0.60;0.60;;;6.60;99.90;;;;;;4960041;28;20049;-81
2022/12/01 00:42:29;;;;;;;0.60;0.60;;;6.70;99.90;;;;;;4955109;28;20048;-81
2022/12/01 00:44:55;;;;;;;0.60;0.60;;;6.70;99.90;;;;;;4955254;28;21091;-82
2022/12/01 00:47:21;;;;;;;0.60;0.60;;;6.70;99.90;;;;;;4960578;28;20588;-81
2022/12/01 00:49:47;;;;;;;0.60;0.60;;;6.70;99.90;;;;;;4958593;28;20553;-81
2022/12/01 00:52:15;;;;;;;0.60;0.60;;;6.60;99.90;;;;;;4957980;28;20040;-81
2022/12/01 00:54:41;;;;;;;0.60;0.60;;;6.60;99.90;;;;;;4959109;28;20049;-81
2022/12/01 00:57:07;;;;;;;0.60;0.60;;;6.50;99.90;;;;;;4960365;28;20053;-81
2022/12/01 00:59:34;;;;;;;0.60;0.60;;;6.60;99.90;;;;;;4964265;28;20101;-81
2022/12/01 01:02:01;;;;;;;0.60;0.60;;;6.50;99.90;;;;;;4961333;28;20277;-81
2022/12/01 01:04:30;;;;;;;0.70;0.70;;;6.40;99.90;;;;;;4957831;28;20075;-81
2022/12/01 01:06:56;;;;;;;0.60;0.60;;;6.40;99.90;;;;;;4960998;28;20709;-82
2022/12/01 01:09:28;;;;;;;0.60;0.60;;;6.50;99.90;;;;;;4957762;28;20064;-82
2022/12/01 01:11:54;;;;;;;0.70;0.70;;;6.50;99.90;;;;;;4937552;28;20048;-81
2022/12/01 01:14:20;;;;;;;0.60;0.60;;;6.50;99.90;;;;;;4940460;28;20346;-81
2022/12/01 01:16:46;;;;;;;0.60;0.60;;;6.40;99.90;;;;;;4962706;28;20044;-81
2022/12/01 01:19:12;;;;;;;0.60;0.60;;;6.50;99.90;;;;;;4951541;28;20051;-81
2022/12/01 01:21:38;;;;;;;0.60;0.60;;;6.40;99.90;;;;;;4959566;28;21056;-81
2022/12/01 01:24:04;;;;;;;0.60;0.60;;;6.50;99.90;;;;;;4957565;28;20056;-81
2022/12/01 01:26:31;;;;;;;0.60;0.60;;;6.50;99.90;;;;;;4960583;28;20939;-81
2022/12/01 01:29:00;;;;;;;0.60;0.60;;;6.50;99.90;;;;;;4954217;28;21066;-82
2022/12/01 01:31:27;;;;;;;0.60;0.60;;;6.60;99.90;;;;;;4963552;28;20901;-82
2022/12/01 01:33:55;;;;;;;0.60;0.60;;;6.50;99.90;;;;;;4958070;28;20493;-82
2022/12/01 01:36:21;;;;;;;0.60;0.60;;;6.50;99.90;;;;;;4957935;28;20105;-80
2022/12/01 01:38:50;;;;;;;0.60;0.60;;;6.50;99.90;;;;;;4958612;28;20052;-81
2022/12/01 01:41:17;;;;;;;0.60;0.60;;;6.60;99.90;;;;;;4961939;28;20845;-81
2022/12/01 01:43:49;;;;;;;0.60;0.60;;;6.50;99.90;;;;;;4959796;28;20056;-81
2022/12/01 01:46:23;;;;;;;0.60;0.60;;;6.50;99.90;;;;;;4958209;28;20826;-81
2022/12/01 01:49:09;;;;;;;0.60;0.60;;;6.60;99.90;;;;;;4936688;28;20059;-81
2022/12/01 01:51:43;;;;;;;0.70;0.70;;;6.50;99.90;;;;;;4953828;28;20631;-81
2022/12/01 01:54:25;;;;;;;0.60;0.60;;;6.60;99.90;;;;;;4955358;28;20076;-81
2022/12/01 01:56:52;;;;;;;0.70;0.70;;;6.50;99.90;;;;;;4939874;28;20048;-81
2022/12/01 01:59:28;;;;;;;0.60;0.60;;;6.60;99.90;;;;;;4953630;28;20037;-81
2022/12/01 02:02:07;;;;;;;0.60;0.60;;;6.60;99.90;;;;;;4950635;28;20766;-81
2022/12/01 02:04:39;;;;;;;0.60;0.60;;;6.60;99.90;;;;;;4964801;28;20158;-81
2022/12/01 02:07:06;;;;;;;0.60;0.60;;;6.60;99.90;;;;;;4950399;28;20056;-81
2022/12/01 02:09:32;;;;;;;0.60;0.60;;;6.50;99.90;;;;;;4958346;28;20044;-82
2022/12/01 02:12:16;;;;;;;0.60;0.60;;;6.60;99.90;;;;;;4954203;28;20051;-81
2022/12/01 02:15:07;;;;;;;0.70;0.70;;;6.50;99.90;;;;;;4956557;28;21625;-81
2022/12/01 02:17:39;;;;;;;0.60;0.60;;;6.50;99.90;;;;;;4960651;28;20200;-81
2022/12/01 02:20:42;;;;;;;0.60;0.60;;;6.50;99.90;;;;;;4964220;28;20101;-81
2022/12/01 02:23:38;;;;;;;0.60;0.60;;;6.50;99.90;;;;;;4961279;28;20057;-82
2022/12/01 02:26:10;;;;;;;0.60;0.60;;;6.60;99.90;;;;;;4966528;28;20494;-81
2022/12/01 02:28:54;;;;;;;0.75;0.75;;;6.60;99.90;;;;;;4947205;28;20582;-81
2022/12/01 02:31:35;;;;;;;0.70;0.70;;;6.50;99.90;;;;;;4957247;28;20045;-80
2022/12/01 02:34:28;;;;;;;0.60;0.60;;;6.60;99.90;;;;;;4963407;28;20471;-80
2022/12/01 02:37:04;;;;;;;0.60;0.60;;;6.50;99.90;;;;;;4958808;28;20044;-81
2022/12/01 02:39:50;;;;;;;0.60;0.60;;;6.60;99.90;;;;;;4960350;28;20723;-81
2022/12/01 02:42:49;;;;;;;0.60;0.60;;;6.60;99.90;;;;;;4943067;28;20116;-81
2022/12/01 02:46:13;;;;;;;0.60;0.60;;;6.60;99.90;;;;;;4952791;28;20106;-81
2022/12/01 02:48:46;;;;;;;0.65;0.65;;;6.60;99.90;;;;;;4922054;28;20480;-81
2022/12/01 02:51:19;;;;;;;0.60;0.60;;;6.60;99.90;;;;;;4925588;28;20041;-81
2022/12/01 02:53:45;;;;;;;0.70;0.70;;;6.60;99.90;;;;;;4938002;28;21078;-80
2022/12/01 02:56:14;;;;;;;0.60;0.60;;;6.50;99.90;;;;;;4955769;28;20059;-80
2022/12/01 02:58:42;;;;;;;0.70;0.70;;;6.50;99.90;;;;;;4957842;28;20048;-81
2022/12/01 03:01:51;;;;;;;0.60;0.60;;;6.60;99.90;;;;;;4960087;28;20057;-81
2022/12/01 03:04:20;;;;;;;0.60;0.60;;;6.50;99.90;;;;;;4943213;28;20302;-81
2022/12/01 03:07:06;;;;;;;0.65;0.65;;;6.60;99.90;;;;;;4963447;28;20452;-81
2022/12/01 03:10:15;;;;;;;0.70;0.70;;;6.60;99.90;;;;;;4963313;28;20056;-81
2022/12/01 03:13:03;;;;;;;0.60;0.60;;;6.60;99.90;;;;;;4953207;28;20060;-81
2022/12/01 03:15:42;;;;;;;0.60;0.60;;;6.60;99.90;;;;;;4958731;28;20051;-81
2022/12/01 03:18:16;;;;;;;0.60;0.60;;;6.70;99.90;;;;;;4945449;28;20060;-81
2022/12/01 03:20:54;;;;;;;0.70;0.70;;;6.60;99.90;;;;;;4955106;28;20123;-81
2022/12/01 03:23:23;;;;;;;0.73;0.73;;;6.60;99.90;;;;;;4953612;28;20083;-80
2022/12/01 03:25:53;;;;;;;0.60;0.60;;;6.60;99.90;;;;;;4967010;28;20522;-81
2022/12/01 03:28:27;;;;;;;0.60;0.60;;;6.50;99.90;;;;;;4953738;28;20060;-81
2022/12/01 03:30:58;;;;;;;0.60;0.60;;;6.50;99.90;;;;;;4957469;28;20502;-81
2022/12/01 03:33:28;;;;;;;0.60;0.60;;;6.50;99.90;;;;;;4975890;28;21021;-81
2022/12/01 03:36:00;;;;;;;0.60;0.60;;;6.50;99.90;;;;;;4947785;28;20470;-82
2022/12/01 03:38:28;;;;;;;0.70;0.70;;;6.50;99.90;;;;;;4932453;28;20056;-81
2022/12/01 03:41:01;;;;;;;0.70;0.70;;;6.50;99.90;;;;;;4955158;28;20417;-81
2022/12/01 03:43:33;;;;;;;0.60;0.60;;;6.50;99.90;;;;;;4961180;28;20988;-81
2022/12/01 03:45:59;;;;;;;0.60;0.60;;;6.60;99.90;;;;;;4949854;28;22070;-81
2022/12/01 03:48:25;;;;;;;0.60;0.60;;;6.50;99.90;;;;;;4973613;28;20040;-81
2022/12/01 03:51:12;;;;;;;0.60;0.60;;;6.50;99.90;;;;;;4953848;28;20075;-81
2022/12/01 03:54:14;;;;;;;0.70;0.70;;;6.50;99.90;;;;;;4951534;28;20033;-81
2022/12/01 03:57:01;;;;;;;0.65;0.65;;;6.50;99.90;;;;;;4952655;28;20607;-80
2022/12/01 03:59:28;;;;;;;0.70;0.70;;;6.50;99.90;;;;;;4938609;28;20142;-80
2022/12/01 04:01:54;;;;;;;0.60;0.60;;;6.50;99.90;;;;;;4974341;28;20040;-81
2022/12/01 04:04:19;;;;;;;0.60;0.60;;;6.60;99.90;;;;;;4963046;28;20093;-80
2022/12/01 04:06:48;;;;;;;0.60;0.60;;;6.60;99.90;;;;;;4953226;28;20056;-80
2022/12/01 04:09:13;;;;;;;0.60;0.60;;;6.60;99.90;;;;;;4964329;28;20150;-80
2022/12/01 04:14:23;;;;;;;0.60;0.60;;;6.60;99.90;;;;;;4954003;28;20917;-80
2022/12/01 04:16:49;;;;;;;0.60;0.60;;;6.60;99.90;;;;;;4955752;28;20044;-80
2022/12/01 04:19:15;;;;;;;0.60;0.60;;;6.50;99.90;;;;;;4962724;28;20172;-80
2022/12/01 04:21:41;;;;;;;0.60;0.60;;;6.50;99.90;;;;;;4955721;28;20048;-80
2022/12/01 04:24:07;;;;;;;0.60;0.60;;;6.50;99.90;;;;;;4958453;28;20060;-80
2022/12/01 04:26:35;;;;;;;0.70;0.70;;;6.60;99.90;;;;;;4959983;28;20048;-80
2022/12/01 04:29:03;;;;;;;0.60;0.60;;;6.60;99.90;;;;;;4949837;28;20491;-81
2022/12/01 04:31:29;;;;;;;0.70;0.70;;;6.60;99.90;;;;;;4972027;28;21142;-81
2022/12/01 04:33:56;;;;;;;0.70;0.70;;;6.60;99.90;;;;;;4960722;28;20128;-81
2022/12/01 04:36:23;;;;;;;0.70;0.70;;;6.60;99.90;;;;;;4957218;28;20045;-81
2022/12/01 04:38:50;;;;;;;0.70;0.70;;;6.50;99.90;;;;;;4960153;28;20465;-81
2022/12/01 04:41:15;;;;;;;0.68;0.68;;;6.50;99.90;;;;;;4954552;28;20573;-80
2022/12/01 04:43:42;;;;;;;0.70;0.70;;;6.60;99.90;;;;;;4972930;28;20073;-80
2022/12/01 04:46:08;;;;;;;0.63;0.63;;;6.50;99.90;;;;;;4954778;28;20409;-81
2022/12/01 04:48:35;;;;;;;0.68;0.68;;;6.50;99.90;;;;;;4955657;28;20044;-80
2022/12/01 04:51:02;;;;;;;0.60;0.60;;;6.50;99.90;;;;;;4952280;28;20049;-81
2022/12/01 04:53:28;;;;;;;0.60;0.60;;;6.50;99.90;;;;;;4937408;28;20510;-81
2022/12/01 04:55:54;;;;;;;0.60;0.60;;;6.50;99.90;;;;;;4941321;28;20152;-81
2022/12/01 04:58:19;;;;;;;0.60;0.60;;;6.40;99.90;;;;;;4954540;28;20463;-80
2022/12/01 05:00:45;;;;;;;0.60;0.60;;;6.30;99.90;;;;;;4958126;28;20056;-81
2022/12/01 05:03:11;;;;;;;0.60;0.60;;;6.30;99.90;;;;;;4960608;28;20811;-81
2022/12/01 05:05:37;;;;;;;0.60;0.60;;;6.40;99.90;;;;;;4941097;28;20052;-81
2022/12/01 05:08:03;;;;;;;0.60;0.60;;;6.50;99.90;;;;;;4961552;28;20055;-81
2022/12/01 05:10:29;;;;;;;0.70;0.70;;;6.50;99.90;;;;;;4943806;28;20049;-81
2022/12/01 05:12:56;;;;;;;0.70;0.70;;;6.50;99.90;;;;;;4935356;28;20048;-81
2022/12/01 05:15:23;;;;;;;0.60;0.60;;;6.40;99.90;;;;;;4975415;28;20807;-81
2022/12/01 05:17:48;;;;;;;0.70;0.70;;;6.40;99.90;;;;;;4959201;28;20086;-81
2022/12/01 05:23:04;;;;;;;0.60;0.60;;;6.50;99.90;;;;;;4959481;28;20360;-80
2022/12/01 05:25:31;;;;;;;0.70;0.70;;;6.40;99.90;;;;;;4961107;28;20757;-81
2022/12/01 05:27:57;;;;;;;0.70;0.70;;;6.40;99.90;;;;;;4959463;28;20053;-82
2022/12/01 05:30:23;;;;;;;0.60;0.60;;;6.30;99.90;;;;;;4968615;28;20070;-82
2022/12/01 05:32:49;;;;;;;0.70;0.70;;;6.30;99.90;;;;;;4947406;28;20178;-81
2022/12/01 05:35:14;;;;;;;0.70;0.70;;;6.40;99.90;;;;;;4957560;28;20882;-81
2022/12/01 05:37:40;;;;;;;0.60;0.60;;;6.30;99.90;;;;;;4954453;28;20442;-81
2022/12/01 05:40:07;;;;;;;0.60;0.60;;;6.20;99.90;;;;;;4958057;28;20488;-81
2022/12/01 05:42:32;;;;;;;0.63;0.63;;;6.40;99.90;;;;;;4958931;28;20147;-81
2022/12/01 05:44:58;;;;;;;0.70;0.70;;;6.40;99.90;;;;;;4964331;28;20424;-81
2022/12/01 05:47:24;;;;;;;0.60;0.60;;;6.30;99.90;;;;;;4976945;28;20528;-81
2022/12/01 05:49:50;;;;;;;0.70;0.70;;;6.30;99.90;;;;;;4961622;28;20040;-81
2022/12/01 05:52:16;;;;;;;0.70;0.70;;;6.30;99.90;;;;;;4949050;28;20052;-81
2022/12/01 05:54:41;;;;;;;0.63;0.63;;;6.40;99.90;;;;;;4960523;28;20053;-81
2022/12/01 05:57:07;;;;;;;0.70;0.70;;;6.40;99.90;;;;;;4925925;28;20074;-82
2022/12/01 05:59:33;;;;;;;0.60;0.60;;;6.30;99.90;;;;;;4952752;28;20048;-81
2022/12/01 06:01:59;;;;;;;0.70;0.70;;;6.40;99.90;;;;;;4936094;28;20426;-81
2022/12/01 06:04:24;;;;;;;0.70;0.70;;;6.30;99.90;;;;;;4952417;28;20513;-81
2022/12/01 06:06:50;;;;;;;0.70;0.70;;;6.20;99.90;;;;;;4953757;28;20622;-81
2022/12/01 06:09:16;;;;;;;0.70;0.70;;;6.30;99.90;;;;;;4954583;28;20044;-82
2022/12/01 06:11:42;;;;;;;0.60;0.60;;;6.30;99.90;;;;;;4960751;28;20432;-81
2022/12/01 06:14:08;;;;;;;0.70;0.70;;;6.40;99.90;;;;;;4976214;28;20641;-82
2022/12/01 06:16:34;;;;;;;0.60;0.60;;;6.30;99.90;;;;;;4957955;28;20723;-82
2022/12/01 06:19:00;;;;;;;0.70;0.70;;;6.40;99.90;;;;;;4956029;28;20040;-81
2022/12/01 06:21:25;;;;;;;0.70;0.70;;;6.40;99.90;;;;;;4940145;28;20118;-81
2022/12/01 06:23:51;;;;;;;0.70;0.70;;;6.40;99.90;;;;;;4942152;28;20079;-81
2022/12/01 06:26:17;;;;;;;0.70;0.70;;;6.40;99.90;;;;;;4960254;28;20190;-81
2022/12/01 06:28:42;;;;;;;0.70;0.70;;;6.40;99.90;;;;;;4960323;28;20521;-81
2022/12/01 06:31:08;;;;;;;0.70;0.70;;;6.40;99.90;;;;;;4962589;28;20048;-81
2022/12/01 06:33:34;;;;;;;0.70;0.70;;;6.40;99.90;;;;;;4953846;28;20355;-81
2022/12/01 06:36:05;;;;;;;0.70;0.70;;;6.40;99.90;;;;;;4972933;28;20719;-81
2022/12/01 06:38:32;;;;;;;0.70;0.70;;;6.40;99.90;;;;;;4928166;28;20037;-81
2022/12/01 06:40:59;;;;;;;0.60;0.60;;;6.50;99.90;;;;;;4955880;28;20101;-82
2022/12/01 06:43:25;;;;;;;0.60;0.60;;;6.40;99.90;;;;;;4955919;28;20080;-82
2022/12/01 06:45:50;;;;;;;0.70;0.70;;;6.50;99.90;;;;;;4964266;28;20059;-81
2022/12/01 06:48:16;;;;;;;0.60;0.60;;;6.50;99.90;;;;;;4966068;28;21023;-81
2022/12/01 06:50:42;;;;;;;0.63;0.63;;;6.40;99.90;;;;;;4956037;28;20459;-81
2022/12/01 06:53:08;;;;;;;0.70;0.70;;;6.50;99.90;;;;;;4953636;28;20826;-81
2022/12/01 06:55:35;;;;;;;0.70;0.70;;;6.50;99.90;;;;;;4953803;28;20702;-81
2022/12/01 06:58:01;;;;;;;0.70;0.70;;;6.40;99.90;;;;;;4960693;28;20445;-81
2022/12/01 07:00:27;;;;;;;0.70;0.70;;;6.50;99.90;;;;;;4954320;28;20629;-80
2022/12/01 07:02:53;;;;;;;0.70;0.70;;;6.40;99.90;;;;;;4959499;28;20493;-80
2022/12/01 07:05:19;;;;;;;0.70;0.70;;;6.40;99.90;;;;;;4963439;28;20056;-80
2022/12/01 07:07:45;;;;;;;0.70;0.70;;;6.50;99.90;;;;;;4955690;28;20037;-80
2022/12/01 07:10:12;;;;;;;0.63;0.63;;;6.40;99.90;;;;;;4960159;28;20053;-81
2022/12/01 07:12:38;;;;;;;0.70;0.70;;;6.50;99.90;;;;;;4954967;28;20051;-81
2022/12/01 07:15:06;;;;;;;0.70;0.70;;;6.40;99.90;;;;;;4962859;28;20409;-81
2022/12/01 07:17:33;;;;;;;0.70;0.70;;;6.40;99.90;;;;;;4962516;28;20817;-80
2022/12/01 07:19:59;;;;;;;0.70;0.70;;;6.30;99.90;;;;;;4962325;28;20051;-80
2022/12/01 07:22:24;;;;;;;0.70;0.70;;;6.40;99.90;;;;;;4957029;28;20553;-80
2022/12/01 07:24:50;;;;;;;0.70;0.70;;;6.50;99.90;;;;;;4956383;28;20052;-83
2022/12/01 07:27:28;;;;;;;0.70;0.70;;;6.40;99.90;;;;;;4965624;28;20432;-82
2022/12/01 07:29:54;;;;;;;0.70;0.70;;;6.30;99.90;;;;;;4943156;28;20053;-82
2022/12/01 07:32:20;;;;;;;0.70;0.70;;;6.30;99.90;;;;;;4939324;28;20094;-81
2022/12/01 07:34:46;;;;;;;0.60;0.60;;;6.40;99.90;;;;;;4932270;28;20053;-81
2022/12/01 07:37:12;;;;;;;0.70;0.70;;;6.40;99.90;;;;;;4935458;28;20361;-81
2022/12/01 07:39:37;;;;;;;0.68;0.68;;;6.40;99.90;;;;;;4914953;28;20053;-82
2022/12/01 07:42:03;;;;;;;0.70;0.70;;;6.40;99.90;;;;;;4939896;28;20287;-82
2022/12/01 07:44:29;;;;;;;0.70;0.70;;;6.40;99.90;;;;;;4924365;28;20045;-81
2022/12/01 07:46:55;;;;;;;0.60;0.60;;;6.30;99.90;;;;;;4943452;28;20267;-81
2022/12/01 07:49:21;;;;;;;0.70;0.70;;;6.40;99.90;;;;;;4941687;28;20812;-81
2022/12/01 07:51:46;;;;;;;0.63;0.63;;;6.40;99.90;;;;;;4939992;28;20041;-81
2022/12/01 07:54:16;;;;;;;0.60;0.60;;;6.40;99.90;;;;;;4937630;28;20049;-81
2022/12/01 07:56:42;;;;;;;0.70;0.70;;;6.40;99.90;;;;;;4935559;28;20144;-82
2022/12/01 07:59:08;;;;;;;0.70;0.70;;;6.30;99.90;;;;;;4938108;28;20797;-81
2022/12/01 08:01:34;;;;;;;0.70;0.70;;;6.50;99.90;;;;;;4943569;28;20119;-84
2022/12/01 08:03:59;;;;;;;0.63;0.63;;;6.50;99.90;;;;;;4910039;28;20039;-81
2022/12/01 08:06:26;;;;;;;0.70;0.70;;;6.50;99.90;;;;;;4934960;28;20048;-83
2022/12/01 08:08:52;;;;;;;0.60;0.60;;;6.50;99.90;;;;;;4934161;28;20159;-81
2022/12/01 08:11:27;;;;;;;0.60;0.60;;;6.60;99.90;;;;;;4943383;28;20558;-81
2022/12/01 08:13:53;;;;;;;0.68;0.68;;;6.50;99.90;;;;;;4935960;28;20899;-81
2022/12/01 08:16:25;;;;;;;0.70;0.70;;;6.50;99.90;;;;;;4905921;28;20048;-82
2022/12/01 08:18:51;;;;;;;0.65;0.65;;;6.50;99.90;;;;;;4942469;28;20966;-81
2022/12/01 08:21:20;;;;;;;0.60;0.60;;;6.50;99.90;;;;;;4938646;28;20089;-81
2022/12/01 08:23:46;;;;;;;0.70;0.70;;;6.50;99.90;;;;;;4927348;28;20072;-82
2022/12/01 08:26:18;;;;;;;0.70;0.70;;;6.70;99.90;;;;;;4934475;28;20454;-83
2022/12/01 08:28:44;;;;;;;0.63;0.63;;;6.60;99.90;;;;;;4946926;28;20045;-79
2022/12/01 08:31:16;;;;;;;0.60;0.60;;;6.50;99.90;;;;;;4962557;28;20056;-83
2022/12/01 08:33:41;;;;;;;0.70;0.70;;;6.60;99.90;;;;;;4956284;28;20040;-83
2022/12/01 08:36:08;;;;;;;1.33;1.33;;;6.70;99.90;;;;;;4960181;28;20421;-81
2022/12/01 08:38:34;;;;;;;0.60;0.60;;;6.70;99.90;;;;;;4959894;28;20059;-82
2022/12/01 08:41:06;;;;;;;0.70;0.70;;;6.70;99.90;;;;;;4956878;28;20810;-81
2022/12/01 08:43:31;;;;;;;0.60;0.60;;;6.70;99.90;;;;;;4958251;28;20128;-81
2022/12/01 08:46:00;;;;;;;0.60;0.60;;;6.60;99.90;;;;;;4954659;28;20066;-82
2022/12/01 08:48:28;;;;;;;0.60;0.60;;;6.70;99.90;;;;;;4952753;28;20678;-81
2022/12/01 08:51:08;;;;;;;0.60;0.60;;;6.70;99.90;;;;;;4944158;28;20048;-80
2022/12/01 08:53:36;;;;;;;0.60;0.60;;;6.80;99.90;;;;;;4961174;28;20452;-81
2022/12/01 08:56:09;;;;;;;0.65;0.65;;;6.70;99.90;;;;;;4958766;28;20072;-81
2022/12/01 08:58:35;;;;;;;0.70;0.70;;;6.80;99.90;;;;;;4961322;28;20505;-82
2022/12/01 09:01:12;;;;;;;0.60;0.60;;;6.90;99.90;;;;;;4941122;28;20183;-83
2022/12/01 09:03:39;;;;;;;0.70;0.70;;;6.90;99.90;;;;;;4939961;28;20048;-82
2022/12/01 09:06:12;;;;;;;0.60;0.60;;;6.90;99.90;;;;;;4959266;28;20048;-81
2022/12/01 09:08:38;;;;;;;0.60;0.60;;;6.90;99.90;;;;;;4948133;28;20561;-82
2022/12/01 09:11:16;;;;;;;0.70;0.70;;;6.90;99.90;;;;;;4948003;28;20817;-81
2022/12/01 09:13:43;;;;;;;0.63;0.63;;;6.90;99.90;;;;;;4941628;28;20053;-82
2022/12/01 09:16:31;;;;;;;0.60;0.60;;;6.80;99.90;;;;;;4940756;28;20074;-82
2022/12/01 09:18:57;;;;;;;0.60;0.60;;;6.90;99.90;;;;;;4953780;28;20040;-81
2022/12/01 09:21:26;;;;;;;0.60;0.60;;;6.80;99.90;;;;;;4944485;28;20550;-81
2022/12/01 09:23:52;;;;;;;0.60;0.60;;;6.80;99.90;;;;;;4957266;28;20036;-81
2022/12/01 09:26:19;;;;;;;0.70;0.70;;;6.80;99.90;;;;;;4959438;28;20507;-81
2022/12/01 09:28:46;;;;;;;0.60;0.60;;;6.80;99.90;;;;;;4959532;28;20064;-79
2022/12/01 09:31:13;;;;;;;0.60;0.60;;;6.80;99.90;;;;;;4955551;28;20149;-82
2022/12/01 09:33:39;;;;;;;0.60;0.60;;;6.80;99.90;;;;;;4955603;28;20916;-82
2022/12/01 09:36:07;;;;;;;0.60;0.60;;;6.90;99.90;;;;;;4962661;28;20560;-81
2022/12/01 09:38:35;;;;;;;0.60;0.60;;;6.80;99.90;;;;;;4957638;28;20048;-82
2022/12/01 09:41:44;;;;;;;0.60;0.60;;;6.80;99.90;;;;;;4956479;28;20119;-81
2022/12/01 09:44:13;;;;;;;0.60;0.60;;;6.80;99.90;;;;;;4946948;28;20102;-82
2022/12/01 09:47:06;;;;;;;0.60;0.60;;;6.90;99.90;;;;;;4963036;28;20938;-82
2022/12/01 09:50:04;;;;;;;0.60;0.60;;;7.00;99.90;;;;;;4960667;28;20151;-81
2022/12/01 09:53:03;;;;;;;0.70;0.70;;;6.90;99.90;;;;;;4931841;28;20053;-81
2022/12/01 09:55:31;;;;;;;0.60;0.60;;;6.90;99.90;;;;;;4934089;28;20082;-82
2022/12/01 09:57:59;;;;;;;0.60;0.60;;;6.90;99.90;;;;;;4962078;28;20056;-82
2022/12/01 10:00:33;;;;;;;0.60;0.60;;;7.00;99.90;;;;;;4960911;28;20064;-82
2022/12/01 10:03:08;;;;;;;0.70;0.70;;;7.00;99.90;;;;;;4957992;28;20051;-81
2022/12/01 10:05:45;;;;;;;0.60;0.60;;;7.00;99.90;;;;;;4983964;28;20059;-81
2022/12/01 10:08:15;;;;;;;0.70;0.70;;;7.10;99.90;;;;;;4961132;28;20216;-82
2022/12/01 10:10:47;;;;;;;0.70;0.70;;;7.10;99.90;;;;;;4955781;28;20345;-82
2022/12/01 10:13:25;;;;;;;0.60;0.60;;;7.00;99.90;;;;;;4961826;28;20129;-82
2022/12/01 10:15:59;;;;;;;0.65;0.65;;;7.00;99.90;;;;;;4949186;28;20894;-81
2022/12/01 10:18:31;;;;;;;0.60;0.60;;;7.00;99.90;;;;;;4959406;28;20051;-81
2022/12/01 10:21:14;;;;;;;0.60;0.60;;;7.10;99.90;;;;;;4964054;28;20084;-81
2022/12/01 10:24:02;;;;;;;0.70;0.70;;;7.00;99.90;;;;;;4961544;28;20509;-82
2022/12/01 10:26:43;;;;;;;0.60;0.60;;;7.10;99.90;;;;;;4965601;28;20053;-79
2022/12/01 10:29:40;;;;;;;0.70;0.70;;;6.90;99.90;;;;;;4961465;28;20139;-80
2022/12/01 10:32:24;;;;;;;0.70;0.70;;;7.10;99.90;;;;;;4957014;28;20052;-81
2022/12/01 10:34:50;;;;;;;0.70;0.70;;;7.20;99.90;;;;;;4962334;28;20056;-79
2022/12/01 10:37:25;;;;;;;0.70;0.70;;;7.30;99.90;;;;;;4957827;28;20091;-81
2022/12/01 10:39:53;;;;;;;0.60;0.60;;;7.20;99.90;;;;;;4980031;28;20044;-81
2022/12/01 10:42:33;;;;;;;0.70;0.70;;;7.10;99.90;;;;;;4969673;28;20040;-80
2022/12/01 10:45:05;;;;;;;0.60;0.60;;;7.20;99.90;;;;;;4963017;28;20068;-80
2022/12/01 10:47:31;;;;;;;0.60;0.60;;;7.20;99.90;;;;;;4977540;28;20074;-81
2022/12/01 10:49:57;;;;;;;0.60;0.60;;;7.40;99.90;;;;;;4957798;28;20061;-81
2022/12/01 10:52:34;;;;;;;0.70;0.70;;;7.30;99.90;;;;;;4943005;28;20079;-80
2022/12/01 10:55:00;;;;;;;0.70;0.70;;;7.20;99.90;;;;;;4956854;28;20048;-81
2022/12/01 10:57:29;;;;;;;0.60;0.60;;;7.30;99.90;;;;;;4974078;28;20501;-81
2022/12/01 11:00:00;;;;;;;0.60;0.60;;;7.50;99.90;;;;;;4957093;28;20048;-81
2022/12/01 11:02:27;;;;;;;0.60;0.60;;;7.60;99.90;;;;;;4963089;28;20044;-80
2022/12/01 11:05:04;;;;;;;0.60;0.60;;;7.60;99.90;;;;;;4956084;28;20067;-80
2022/12/01 11:07:41;;;;;;;0.60;0.60;;;7.40;99.90;;;;;;4963011;28;20044;-81
2022/12/01 11:10:13;;;;;;;0.70;0.70;;;7.40;99.90;;;;;;4959355;28;20602;-81
2022/12/01 11:12:40;;;;;;;0.60;0.60;;;7.40;99.90;;;;;;4964078;28;20928;-80
2022/12/01 11:15:15;;;;;;;0.70;0.70;;;7.30;99.90;;;;;;4961780;28;20101;-80
2022/12/01 11:17:43;;;;;;;0.60;0.60;;;7.30;99.90;;;;;;4950106;28;20048;-81
2022/12/01 11:20:26;;;;;;;0.70;0.70;;;7.40;99.90;;;;;;4977211;28;20114;-80
2022/12/01 11:23:11;;;;;;;0.60;0.60;;;7.50;99.90;;;;;;4955887;28;20055;-81
2022/12/01 11:25:37;;;;;;;0.60;0.60;;;7.40;99.90;;;;;;4961653;28;20040;-81
2022/12/01 11:28:03;;;;;;;0.60;0.60;;;7.60;99.90;;;;;;4953798;28;20157;-81
2022/12/01 11:30:31;;;;;;;0.60;0.60;;;7.50;99.90;;;;;;4955503;28;20794;-80
2022/12/01 11:33:03;;;;;;;0.60;0.60;;;7.60;99.90;;;;;;4956719;28;20587;-80
2022/12/01 11:35:44;;;;;;;0.70;0.70;;;7.70;99.90;;;;;;4953582;28;20878;-81
2022/12/01 11:38:21;;;;;;;0.70;0.70;;;7.70;99.90;;;;;;4954743;28;20085;-81
2022/12/01 11:40:52;;;;;;;0.70;0.70;;;7.90;99.90;;;;;;4958943;28;20486;-81
2022/12/01 11:43:21;;;;;;;0.60;0.60;;;7.70;99.90;;;;;;4955504;28;20320;-81
2022/12/01 11:45:47;;;;;;;0.60;0.60;;;7.60;99.90;;;;;;4977354;28;20433;-81
2022/12/01 11:48:15;;;;;;;0.70;0.70;;;7.70;99.90;;;;;;4958765;28;20048;-79
2022/12/01 11:50:43;;;;;;;0.60;0.60;;;7.40;99.90;;;;;;4939764;28;20622;-80
2022/12/01 11:53:32;;;;;;;0.60;0.60;;;7.40;99.90;;;;;;4954392;28;20048;-80
2022/12/01 11:56:23;;;;;;;0.60;0.60;;;7.80;99.90;;;;;;4955778;28;20148;-81
2022/12/01 11:58:53;;;;;;;0.70;0.70;;;7.70;99.90;;;;;;4935671;28;20064;-82
2022/12/01 12:01:33;;;;;;;0.70;0.70;;;7.60;99.90;;;;;;4938658;28;20131;-81
2022/12/01 12:04:43;;;;;;;0.70;0.70;;;7.50;99.90;;;;;;4955191;28;20101;-81
2022/12/01 12:07:30;;;;;;;0.63;0.63;;;7.60;99.90;;;;;;4876525;28;20054;-81
2022/12/01 12:10:20;;;;;;;0.60;0.60;;;7.70;99.90;;;;;;4854764;28;20055;-81
2022/12/01 12:13:00;;;;;;;0.60;0.60;;;7.50;99.90;;;;;;4942122;28;20516;-80
2022/12/01 12:15:45;;;;;;;0.70;0.70;;;7.40;99.90;;;;;;4952438;28;20454;-79
2022/12/01 12:18:35;;;;;;;0.60;0.60;;;7.40;99.90;;;;;;4977235;28;20204;-80
2022/12/01 12:21:16;;;;;;;0.60;0.60;;;7.40;99.90;;;;;;4957703;28;20604;-82
2022/12/01 12:24:26;;;;;;;0.60;0.60;;;7.30;99.90;;;;;;4960420;28;20048;-82
2022/12/01 12:27:04;;;;;;;0.60;0.60;;;7.50;99.90;;;;;;4913459;28;20727;-83
2022/12/01 12:29:58;;;;;;;0.68;0.68;;;7.50;99.90;;;;;;4964657;28;20055;-82
2022/12/01 12:32:33;;;;;;;0.70;0.70;;;7.60;99.90;;;;;;4959545;28;20652;-81
2022/12/01 12:35:25;;;;;;;0.70;0.70;;;7.50;99.90;;;;;;4956933;28;20733;-81
2022/12/01 12:38:26;;;;;;;0.70;0.70;;;7.50;99.90;;;;;;4972396;28;20497;-80
2022/12/01 12:41:17;;;;;;;0.70;0.70;;;7.40;99.90;;;;;;4963168;28;20056;-81
2022/12/01 12:44:20;;;;;;;0.70;0.70;;;7.40;99.90;;;;;;4928882;28;20060;-81
2022/12/01 12:46:52;;;;;;;0.60;0.60;;;7.40;99.90;;;;;;4954641;28;20080;-80
2022/12/01 12:49:36;;;;;;;0.70;0.70;;;7.50;99.90;;;;;;4956475;28;20534;-81
2022/12/01 12:52:32;;;;;;;0.70;0.70;;;7.60;99.90;;;;;;4960689;28;20098;-81
2022/12/01 12:55:29;;;;;;;0.60;0.60;;;7.50;99.90;;;;;;4973682;28;20548;-81
2022/12/01 12:58:21;;;;;;;0.70;0.70;;;7.60;99.90;;;;;;4951124;28;20052;-80
2022/12/01 13:00:56;;;;;;;0.68;0.68;;;7.50;99.90;;;;;;4926256;28;20064;-81
2022/12/01 13:03:59;;;;;;;0.70;0.70;;;7.50;99.90;;;;;;4961554;28;20468;-81
2022/12/01 13:06:35;;;;;;;0.63;0.63;;;7.30;99.90;;;;;;4956527;28;20048;-81
2022/12/01 13:09:14;;;;;;;0.60;0.60;;;7.30;99.90;;;;;;4947709;28;20048;-82
2022/12/01 13:11:50;;;;;;;0.70;0.70;;;7.30;99.90;;;;;;4955196;28;21071;-80
2022/12/01 13:14:49;;;;;;;0.70;0.70;;;7.30;99.90;;;;;;4949858;28;20049;-81
2022/12/01 13:17:36;;;;;;;0.60;0.60;;;7.20;99.90;;;;;;4954240;28;20048;-81
2022/12/01 13:20:03;;;;;;;0.70;0.70;;;7.20;99.90;;;;;;4956178;28;20071;-81
2022/12/01 13:22:32;;;;;;;0.70;0.70;;;7.40;99.90;;;;;;4934264;28;20449;-81
2022/12/01 13:24:59;;;;;;;0.60;0.60;;;7.20;99.90;;;;;;4974316;28;20146;-80
2022/12/01 13:27:30;;;;;;;0.70;0.70;;;7.30;99.90;;;;;;4958687;28;20079;-80
2022/12/01 13:29:57;;;;;;;0.60;0.60;;;7.30;99.90;;;;;;4958676;28;20094;-81